Portada
METAR-TAF:

METAR-TAF

Aeroports :

Estrasburg, França

latitud: 48-33N, longitud: 007-38E, altitud: 153 m

Observació

L'informe es va fer fa 12 minuts, a les 20:30 UTC
Vent 7 kt del Nord/Nord-Est
Temperatura 21°C
Humitat 43%
Pressió 1017 hPa
Visibilitat 10 km o més
sense núvols per sota de 1500 mi sense presència de cumulonimbus.

METAR: LFST 012030Z AUTO 02007KT CAVOK 21/08 Q1017 NOSIG

Hora: 22:42 (20:42 UTC)

Pronòstic

L'informe es va fer fa 3 hores i 42 minuts, a les 17:00 UTC
Pronòstic vàlid del 01 a les 18 UTC al 02 a les 18 UTC
Vent 15 kt del Nord/Nord-Est
Visibilitat 10 km o més
sense núvols per sota de 1500 mi sense presència de cumulonimbus.
Evolucionant progressivament
l' 01 a les 21 UTC al 01 a les 24 UTC
Vent 5 kt del Nord

TAF: LFST 011700Z 0118/0218 02015KT CAVOK BECMG 0121/0124 36005KT

Observacions i pronòstics meteorològics de més de 4000 aeroports (METAR i TAF).

Les estacions disponibles són els punts grocs i vermells al mapa.

Posi el ratolí al punt desitjat per veure el nom de l'estació.

Feu clic per veure les observacions i els pronòstics meteorològics.

Per canviar el mapa: feu clic els botons verds amb una creu de color negre per apropar; al botó verd amb un guió per allunyar la imatge; o en les fletxes verdes per a mapes adjacents.


METAR-TAF: